KHNZ

Details ICAO KHNZ
Name HENDERSON OXFORD
Region United States
Timezone America/New_York (UTC-5.0)
Plans Departing 5
Arriving 7
Stats Elevation 527 ft / 161 m (AMSL)
Location 36.361562° -78.529188°
Runways 1
Magnetic Variation 9.432° W
Sunrise 2017-12-15 12:19:55 UTC / 2017-12-15 07:19:55 Local
Sunset 2017-12-15 22:01:36 UTC / 2017-12-15 17:01:36 Local
Advertisement - Login to hide

Runways

ID Width Length Bearing (true) Bearing (mag) Surface Threshold Offset Overrun Length
06 100 ft / 30 m 5,001 ft / 1,524 m 51.07° 60.50° Asphalt 200 ft / 61 m 0 ft / 0 m
24 100 ft / 30 m 5,001 ft / 1,524 m 231.08° 240.51° Asphalt 0 ft / 0 m 0 ft / 0 m

Map

Weather


0- 5 10 15 20 25 30 35+ Temperature / ° C

Clouds and Precipitation
Forecast for 2017-12-15 12:00 UTC. Updated an hour ago

Ground ~20,000 ft ~40,000 ft Winds

METAR

KHNZ 150825Z AUTO 04006KT 10SM CLR M02/M06 A3003 RMK AO2 T10181060

TAF

Not found

Frequencies

Recorded 118.62 MHz AWOS 3
Approach 132.35 MHz RALEIGH APP/DEP
Unicom 122.80 MHz CTAF/UNICOM
Warning: Do not use this data for real-world aviation or navigation. No guarantee of current accuracy is given.